sensor_id;sensor_type;location;lat;lon;timestamp;temperature;humidity
41481;DHT22;27217;51.220;5.308;2022-12-13T00:01:37;-2.20;99.90
41481;DHT22;27217;51.220;5.308;2022-12-13T00:04:05;-2.40;99.90
41481;DHT22;27217;51.220;5.308;2022-12-13T00:06:31;-2.50;99.90
41481;DHT22;27217;51.220;5.308;2022-12-13T00:08:58;-2.50;99.90
41481;DHT22;27217;51.220;5.308;2022-12-13T00:11:24;-2.40;99.90
41481;DHT22;27217;51.220;5.308;2022-12-13T00:13:50;-2.50;99.90
41481;DHT22;27217;51.220;5.308;2022-12-13T00:16:21;-2.40;99.90
41481;DHT22;27217;51.220;5.308;2022-12-13T00:18:49;-2.60;99.90
41481;DHT22;27217;51.220;5.308;2022-12-13T00:21:17;-2.60;99.90
41481;DHT22;27217;51.220;5.308;2022-12-13T00:23:45;-2.60;99.90
41481;DHT22;27217;51.220;5.308;2022-12-13T00:26:13;-2.50;99.90
41481;DHT22;27217;51.220;5.308;2022-12-13T00:28:40;-2.50;99.90
41481;DHT22;27217;51.220;5.308;2022-12-13T00:31:06;-2.60;99.90
41481;DHT22;27217;51.220;5.308;2022-12-13T00:33:32;-2.70;99.90
41481;DHT22;27217;51.220;5.308;2022-12-13T00:35:58;-2.60;99.90
41481;DHT22;27217;51.220;5.308;2022-12-13T00:38:24;-2.50;99.90
41481;DHT22;27217;51.220;5.308;2022-12-13T00:40:50;-2.70;99.90
41481;DHT22;27217;51.220;5.308;2022-12-13T00:43:17;-2.80;99.90
41481;DHT22;27217;51.220;5.308;2022-12-13T00:45:43;-2.80;99.90
41481;DHT22;27217;51.220;5.308;2022-12-13T00:48:09;-2.80;99.90
41481;DHT22;27217;51.220;5.308;2022-12-13T00:50:36;-2.80;99.90
41481;DHT22;27217;51.220;5.308;2022-12-13T00:53:02;-2.90;99.90
41481;DHT22;27217;51.220;5.308;2022-12-13T00:55:28;-2.70;99.90
41481;DHT22;27217;51.220;5.308;2022-12-13T00:57:54;-2.70;99.90
41481;DHT22;27217;51.220;5.308;2022-12-13T01:00:20;-2.60;99.90
41481;DHT22;27217;51.220;5.308;2022-12-13T01:02:47;-2.80;99.90
41481;DHT22;27217;51.220;5.308;2022-12-13T01:05:12;-2.80;99.90
41481;DHT22;27217;51.220;5.308;2022-12-13T01:07:39;-2.90;99.90
41481;DHT22;27217;51.220;5.308;2022-12-13T01:10:09;-2.90;99.90
41481;DHT22;27217;51.220;5.308;2022-12-13T01:12:36;-2.80;99.90
41481;DHT22;27217;51.220;5.308;2022-12-13T01:15:02;-2.80;99.90
41481;DHT22;27217;51.220;5.308;2022-12-13T01:17:28;-2.90;99.90
41481;DHT22;27217;51.220;5.308;2022-12-13T01:19:55;-2.90;99.90
41481;DHT22;27217;51.220;5.308;2022-12-13T01:22:21;-3.00;99.90
41481;DHT22;27217;51.220;5.308;2022-12-13T01:24:47;-2.90;99.90
41481;DHT22;27217;51.220;5.308;2022-12-13T01:27:13;-3.00;99.90
41481;DHT22;27217;51.220;5.308;2022-12-13T01:29:39;-3.10;99.90
41481;DHT22;27217;51.220;5.308;2022-12-13T01:32:05;-3.10;99.90
41481;DHT22;27217;51.220;5.308;2022-12-13T01:34:31;-2.90;99.90
41481;DHT22;27217;51.220;5.308;2022-12-13T01:36:57;-3.00;99.90
41481;DHT22;27217;51.220;5.308;2022-12-13T01:39:23;-2.90;99.90
41481;DHT22;27217;51.220;5.308;2022-12-13T01:41:51;-2.80;99.90
41481;DHT22;27217;51.220;5.308;2022-12-13T01:47:41;-2.90;99.90
41481;DHT22;27217;51.220;5.308;2022-12-13T01:50:16;-3.10;99.90
41481;DHT22;27217;51.220;5.308;2022-12-13T01:52:44;-3.00;99.90
41481;DHT22;27217;51.220;5.308;2022-12-13T01:55:11;-3.00;99.90
41481;DHT22;27217;51.220;5.308;2022-12-13T01:57:41;-3.00;99.90
41481;DHT22;27217;51.220;5.308;2022-12-13T02:00:11;-3.00;99.90
41481;DHT22;27217;51.220;5.308;2022-12-13T02:02:38;-3.10;99.90
41481;DHT22;27217;51.220;5.308;2022-12-13T02:05:52;-3.00;99.90
41481;DHT22;27217;51.220;5.308;2022-12-13T02:07:57;-3.10;99.90
41481;DHT22;27217;51.220;5.308;2022-12-13T02:10:25;-3.30;99.90
41481;DHT22;27217;51.220;5.308;2022-12-13T02:12:51;-3.40;99.90
41481;DHT22;27217;51.220;5.308;2022-12-13T02:15:18;-3.30;99.90
41481;DHT22;27217;51.220;5.308;2022-12-13T02:30:41;-3.30;99.90
41481;DHT22;27217;51.220;5.308;2022-12-13T02:36:12;-3.30;99.90
41481;DHT22;27217;51.220;5.308;2022-12-13T02:39:07;-3.30;99.90
41481;DHT22;27217;51.220;5.308;2022-12-13T02:41:37;-3.30;99.90
41481;DHT22;27217;51.220;5.308;2022-12-13T02:44:29;-3.20;99.90
41481;DHT22;27217;51.220;5.308;2022-12-13T02:47:02;-3.30;99.90
41481;DHT22;27217;51.220;5.308;2022-12-13T02:49:33;-3.30;99.90
41481;DHT22;27217;51.220;5.308;2022-12-13T02:51:59;-3.40;99.90
41481;DHT22;27217;51.220;5.308;2022-12-13T02:54:26;-3.40;99.90
41481;DHT22;27217;51.220;5.308;2022-12-13T02:56:56;-3.40;99.90
41481;DHT22;27217;51.220;5.308;2022-12-13T02:59:28;-3.40;99.90
41481;DHT22;27217;51.220;5.308;2022-12-13T03:02:09;-3.40;99.90
41481;DHT22;27217;51.220;5.308;2022-12-13T03:04:43;-3.30;99.90
41481;DHT22;27217;51.220;5.308;2022-12-13T03:07:43;-3.30;99.90
41481;DHT22;27217;51.220;5.308;2022-12-13T03:10:20;-3.00;99.90
41481;DHT22;27217;51.220;5.308;2022-12-13T03:12:57;-3.00;99.90
41481;DHT22;27217;51.220;5.308;2022-12-13T03:15:59;-3.20;99.90
41481;DHT22;27217;51.220;5.308;2022-12-13T03:18:29;-3.30;99.90
41481;DHT22;27217;51.220;5.308;2022-12-13T03:21:01;-3.30;99.90
41481;DHT22;27217;51.220;5.308;2022-12-13T03:23:28;-3.30;99.90
41481;DHT22;27217;51.220;5.308;2022-12-13T03:26:16;-3.30;99.90
41481;DHT22;27217;51.220;5.308;2022-12-13T03:28:43;-3.30;99.90
41481;DHT22;27217;51.220;5.308;2022-12-13T03:31:09;-3.40;99.90
41481;DHT22;27217;51.220;5.308;2022-12-13T03:33:35;-3.40;99.90
41481;DHT22;27217;51.220;5.308;2022-12-13T03:36:03;-3.50;99.90
41481;DHT22;27217;51.220;5.308;2022-12-13T03:38:30;-3.40;99.90
41481;DHT22;27217;51.220;5.308;2022-12-13T03:41:02;-3.40;99.90
41481;DHT22;27217;51.220;5.308;2022-12-13T03:43:31;-3.40;99.90
41481;DHT22;27217;51.220;5.308;2022-12-13T03:45:57;-3.50;99.90
41481;DHT22;27217;51.220;5.308;2022-12-13T03:48:27;-3.40;99.90
41481;DHT22;27217;51.220;5.308;2022-12-13T03:50:54;-3.40;99.90
41481;DHT22;27217;51.220;5.308;2022-12-13T03:53:23;-3.30;99.90
41481;DHT22;27217;51.220;5.308;2022-12-13T03:55:49;-3.40;99.90
41481;DHT22;27217;51.220;5.308;2022-12-13T03:58:15;-3.40;99.90
41481;DHT22;27217;51.220;5.308;2022-12-13T04:00:41;-3.40;99.90
41481;DHT22;27217;51.220;5.308;2022-12-13T04:03:07;-3.40;99.90
41481;DHT22;27217;51.220;5.308;2022-12-13T04:05:33;-3.50;99.90
41481;DHT22;27217;51.220;5.308;2022-12-13T04:07:59;-3.40;99.90
41481;DHT22;27217;51.220;5.308;2022-12-13T04:10:25;-3.40;99.90
41481;DHT22;27217;51.220;5.308;2022-12-13T04:12:52;-3.40;99.90
41481;DHT22;27217;51.220;5.308;2022-12-13T04:15:36;-3.00;99.90
41481;DHT22;27217;51.220;5.308;2022-12-13T04:18:02;-3.20;99.90
41481;DHT22;27217;51.220;5.308;2022-12-13T04:20:29;-3.20;99.90
41481;DHT22;27217;51.220;5.308;2022-12-13T04:22:55;-3.10;99.90
41481;DHT22;27217;51.220;5.308;2022-12-13T04:25:21;-3.30;99.90
41481;DHT22;27217;51.220;5.308;2022-12-13T04:27:47;-3.50;99.90
41481;DHT22;27217;51.220;5.308;2022-12-13T04:30:13;-3.60;99.90
41481;DHT22;27217;51.220;5.308;2022-12-13T04:32:39;-3.60;99.90
41481;DHT22;27217;51.220;5.308;2022-12-13T04:35:05;-3.70;99.90
41481;DHT22;27217;51.220;5.308;2022-12-13T04:37:31;-3.60;99.90
41481;DHT22;27217;51.220;5.308;2022-12-13T04:39:56;-3.60;99.90
41481;DHT22;27217;51.220;5.308;2022-12-13T04:42:23;-3.50;99.90
41481;DHT22;27217;51.220;5.308;2022-12-13T04:44:49;-3.50;99.90
41481;DHT22;27217;51.220;5.308;2022-12-13T04:47:15;-3.60;99.90
41481;DHT22;27217;51.220;5.308;2022-12-13T04:49:41;-3.60;99.90
41481;DHT22;27217;51.220;5.308;2022-12-13T04:52:07;-3.50;99.90
41481;DHT22;27217;51.220;5.308;2022-12-13T04:54:34;-3.30;99.90
41481;DHT22;27217;51.220;5.308;2022-12-13T04:57:00;-3.40;99.90
41481;DHT22;27217;51.220;5.308;2022-12-13T04:59:26;-3.70;99.90
41481;DHT22;27217;51.220;5.308;2022-12-13T05:01:52;-4.00;99.90
41481;DHT22;27217;51.220;5.308;2022-12-13T05:04:17;-4.10;99.90
41481;DHT22;27217;51.220;5.308;2022-12-13T05:06:43;-4.20;99.90
41481;DHT22;27217;51.220;5.308;2022-12-13T05:09:10;-4.10;99.90
41481;DHT22;27217;51.220;5.308;2022-12-13T05:11:36;-4.30;99.90
41481;DHT22;27217;51.220;5.308;2022-12-13T05:14:01;-4.40;99.90
41481;DHT22;27217;51.220;5.308;2022-12-13T05:16:27;-4.40;99.90
41481;DHT22;27217;51.220;5.308;2022-12-13T05:18:53;-4.50;99.90
41481;DHT22;27217;51.220;5.308;2022-12-13T05:21:19;-4.40;99.90
41481;DHT22;27217;51.220;5.308;2022-12-13T05:23:45;-4.40;99.90
41481;DHT22;27217;51.220;5.308;2022-12-13T05:26:10;-4.40;99.90
41481;DHT22;27217;51.220;5.308;2022-12-13T05:28:37;-4.40;99.90
41481;DHT22;27217;51.220;5.308;2022-12-13T05:31:08;-4.40;99.90
41481;DHT22;27217;51.220;5.308;2022-12-13T05:33:35;-4.30;99.90
41481;DHT22;27217;51.220;5.308;2022-12-13T05:36:01;-4.10;99.90
41481;DHT22;27217;51.220;5.308;2022-12-13T05:38:27;-4.20;99.90
41481;DHT22;27217;51.220;5.308;2022-12-13T05:40:53;-4.20;99.90
41481;DHT22;27217;51.220;5.308;2022-12-13T05:43:19;-4.10;99.90
41481;DHT22;27217;51.220;5.308;2022-12-13T05:45:45;-3.90;99.90
41481;DHT22;27217;51.220;5.308;2022-12-13T05:48:11;-3.90;99.90
41481;DHT22;27217;51.220;5.308;2022-12-13T05:50:37;-4.00;99.90
41481;DHT22;27217;51.220;5.308;2022-12-13T05:53:04;-3.80;99.90
41481;DHT22;27217;51.220;5.308;2022-12-13T05:55:30;-3.70;99.90
41481;DHT22;27217;51.220;5.308;2022-12-13T05:57:57;-3.90;99.90
41481;DHT22;27217;51.220;5.308;2022-12-13T06:00:24;-4.00;99.90
41481;DHT22;27217;51.220;5.308;2022-12-13T06:02:50;-3.70;99.90
41481;DHT22;27217;51.220;5.308;2022-12-13T06:05:16;-3.70;99.90
41481;DHT22;27217;51.220;5.308;2022-12-13T06:07:42;-3.80;99.90
41481;DHT22;27217;51.220;5.308;2022-12-13T06:10:09;-4.00;99.90
41481;DHT22;27217;51.220;5.308;2022-12-13T06:12:35;-4.10;99.90
41481;DHT22;27217;51.220;5.308;2022-12-13T06:15:02;-4.00;99.90
41481;DHT22;27217;51.220;5.308;2022-12-13T06:17:35;-3.90;99.90
41481;DHT22;27217;51.220;5.308;2022-12-13T06:20:03;-3.90;99.90
41481;DHT22;27217;51.220;5.308;2022-12-13T06:22:29;-3.90;99.90
41481;DHT22;27217;51.220;5.308;2022-12-13T06:24:55;-3.90;99.90
41481;DHT22;27217;51.220;5.308;2022-12-13T06:27:21;-3.80;99.90
41481;DHT22;27217;51.220;5.308;2022-12-13T06:29:47;-3.60;99.90
41481;DHT22;27217;51.220;5.308;2022-12-13T06:32:13;-3.80;99.90
41481;DHT22;27217;51.220;5.308;2022-12-13T06:34:39;-3.80;99.90
41481;DHT22;27217;51.220;5.308;2022-12-13T06:37:07;-3.80;99.90
41481;DHT22;27217;51.220;5.308;2022-12-13T06:39:36;-3.80;99.90
41481;DHT22;27217;51.220;5.308;2022-12-13T06:42:04;-4.10;99.90
41481;DHT22;27217;51.220;5.308;2022-12-13T06:44:33;-3.90;99.90
41481;DHT22;27217;51.220;5.308;2022-12-13T06:47:00;-3.60;99.90
41481;DHT22;27217;51.220;5.308;2022-12-13T06:49:26;-3.80;99.90
41481;DHT22;27217;51.220;5.308;2022-12-13T06:51:52;-3.80;99.90
41481;DHT22;27217;51.220;5.308;2022-12-13T06:54:18;-3.70;99.90
41481;DHT22;27217;51.220;5.308;2022-12-13T06:56:44;-3.80;99.90
41481;DHT22;27217;51.220;5.308;2022-12-13T06:59:11;-3.90;99.90
41481;DHT22;27217;51.220;5.308;2022-12-13T07:01:37;-3.90;99.90
41481;DHT22;27217;51.220;5.308;2022-12-13T07:04:04;-4.10;99.90
41481;DHT22;27217;51.220;5.308;2022-12-13T07:06:30;-4.00;99.90
41481;DHT22;27217;51.220;5.308;2022-12-13T07:08:56;-4.10;99.90
41481;DHT22;27217;51.220;5.308;2022-12-13T07:11:25;-3.90;99.90
41481;DHT22;27217;51.220;5.308;2022-12-13T07:13:52;-3.90;99.90
41481;DHT22;27217;51.220;5.308;2022-12-13T07:16:18;-4.00;99.90
41481;DHT22;27217;51.220;5.308;2022-12-13T07:18:44;-3.80;99.90
41481;DHT22;27217;51.220;5.308;2022-12-13T07:21:13;-3.80;99.90
41481;DHT22;27217;51.220;5.308;2022-12-13T07:23:39;-3.70;99.90
41481;DHT22;27217;51.220;5.308;2022-12-13T07:26:07;-3.80;99.90
41481;DHT22;27217;51.220;5.308;2022-12-13T07:28:37;-3.90;99.90
41481;DHT22;27217;51.220;5.308;2022-12-13T07:31:07;-3.70;99.90
41481;DHT22;27217;51.220;5.308;2022-12-13T07:33:33;-3.60;99.90
41481;DHT22;27217;51.220;5.308;2022-12-13T07:36:06;-3.70;99.90
41481;DHT22;27217;51.220;5.308;2022-12-13T07:38:34;-3.80;99.90
41481;DHT22;27217;51.220;5.308;2022-12-13T07:41:01;-3.80;99.90
41481;DHT22;27217;51.220;5.308;2022-12-13T07:43:27;-4.00;99.90
41481;DHT22;27217;51.220;5.308;2022-12-13T07:45:57;-4.10;99.90
41481;DHT22;27217;51.220;5.308;2022-12-13T07:48:23;-4.10;99.90
41481;DHT22;27217;51.220;5.308;2022-12-13T07:50:49;-4.00;99.90
41481;DHT22;27217;51.220;5.308;2022-12-13T07:53:17;-4.10;99.90
41481;DHT22;27217;51.220;5.308;2022-12-13T07:55:43;-4.10;99.90
41481;DHT22;27217;51.220;5.308;2022-12-13T07:58:14;-4.00;99.90
41481;DHT22;27217;51.220;5.308;2022-12-13T08:00:42;-4.00;99.90
41481;DHT22;27217;51.220;5.308;2022-12-13T08:03:08;-3.90;99.90
41481;DHT22;27217;51.220;5.308;2022-12-13T08:05:35;-3.90;99.90
41481;DHT22;27217;51.220;5.308;2022-12-13T08:08:03;-3.70;99.90
41481;DHT22;27217;51.220;5.308;2022-12-13T08:10:29;-3.60;99.90
41481;DHT22;27217;51.220;5.308;2022-12-13T08:12:56;-3.60;99.90
41481;DHT22;27217;51.220;5.308;2022-12-13T08:15:23;-3.60;99.90
41481;DHT22;27217;51.220;5.308;2022-12-13T08:17:50;-3.60;99.90
41481;DHT22;27217;51.220;5.308;2022-12-13T08:20:16;-3.40;99.90
41481;DHT22;27217;51.220;5.308;2022-12-13T08:22:42;-3.70;99.90
41481;DHT22;27217;51.220;5.308;2022-12-13T08:25:08;-3.40;99.90
41481;DHT22;27217;51.220;5.308;2022-12-13T08:27:34;-3.50;99.90
41481;DHT22;27217;51.220;5.308;2022-12-13T08:30:00;-3.60;99.90
41481;DHT22;27217;51.220;5.308;2022-12-13T08:32:26;-3.60;99.90
41481;DHT22;27217;51.220;5.308;2022-12-13T08:34:52;-3.50;99.90
41481;DHT22;27217;51.220;5.308;2022-12-13T08:37:17;-3.60;99.90
41481;DHT22;27217;51.220;5.308;2022-12-13T08:39:43;-3.40;99.90
41481;DHT22;27217;51.220;5.308;2022-12-13T08:42:15;-3.30;99.90
41481;DHT22;27217;51.220;5.308;2022-12-13T08:44:41;-3.40;99.90
41481;DHT22;27217;51.220;5.308;2022-12-13T08:47:07;-3.40;99.90
41481;DHT22;27217;51.220;5.308;2022-12-13T08:49:33;-3.60;99.90
41481;DHT22;27217;51.220;5.308;2022-12-13T08:51:58;-3.70;99.90
41481;DHT22;27217;51.220;5.308;2022-12-13T08:54:24;-3.60;99.90
41481;DHT22;27217;51.220;5.308;2022-12-13T08:56:50;-3.60;99.90
41481;DHT22;27217;51.220;5.308;2022-12-13T08:59:16;-3.50;99.90
41481;DHT22;27217;51.220;5.308;2022-12-13T09:01:43;-3.40;99.90
41481;DHT22;27217;51.220;5.308;2022-12-13T09:04:08;-3.30;99.90
41481;DHT22;27217;51.220;5.308;2022-12-13T09:06:35;-3.20;99.90
41481;DHT22;27217;51.220;5.308;2022-12-13T09:09:01;-3.30;99.90
41481;DHT22;27217;51.220;5.308;2022-12-13T09:11:27;-3.10;99.90
41481;DHT22;27217;51.220;5.308;2022-12-13T09:13:53;-2.80;99.90
41481;DHT22;27217;51.220;5.308;2022-12-13T09:16:20;-2.70;99.90
41481;DHT22;27217;51.220;5.308;2022-12-13T09:18:52;-2.70;99.90
41481;DHT22;27217;51.220;5.308;2022-12-13T09:21:18;-2.50;99.90
41481;DHT22;27217;51.220;5.308;2022-12-13T09:23:45;-2.40;99.90
41481;DHT22;27217;51.220;5.308;2022-12-13T09:26:15;-2.50;99.90
41481;DHT22;27217;51.220;5.308;2022-12-13T09:28:41;-2.70;99.90
41481;DHT22;27217;51.220;5.308;2022-12-13T09:31:16;-2.50;99.90
41481;DHT22;27217;51.220;5.308;2022-12-13T09:33:43;-2.60;99.90
41481;DHT22;27217;51.220;5.308;2022-12-13T09:36:14;-2.60;99.90
41481;DHT22;27217;51.220;5.308;2022-12-13T09:38:41;-2.40;99.90
41481;DHT22;27217;51.220;5.308;2022-12-13T09:41:23;-2.40;99.90
41481;DHT22;27217;51.220;5.308;2022-12-13T09:44:02;-2.50;99.90
41481;DHT22;27217;51.220;5.308;2022-12-13T09:46:30;-2.30;99.90
41481;DHT22;27217;51.220;5.308;2022-12-13T09:48:57;-2.00;99.90
41481;DHT22;27217;51.220;5.308;2022-12-13T09:51:24;-1.80;99.90
41481;DHT22;27217;51.220;5.308;2022-12-13T09:53:51;-1.70;99.90
41481;DHT22;27217;51.220;5.308;2022-12-13T09:56:19;-1.60;99.90
41481;DHT22;27217;51.220;5.308;2022-12-13T09:58:53;-1.70;99.90
41481;DHT22;27217;51.220;5.308;2022-12-13T10:01:23;-1.60;99.90
41481;DHT22;27217;51.220;5.308;2022-12-13T10:03:51;-1.60;99.90
41481;DHT22;27217;51.220;5.308;2022-12-13T10:06:20;-1.50;99.90
41481;DHT22;27217;51.220;5.308;2022-12-13T10:08:48;-1.50;99.90
41481;DHT22;27217;51.220;5.308;2022-12-13T10:11:16;-1.40;99.90
41481;DHT22;27217;51.220;5.308;2022-12-13T10:13:57;-1.50;99.90
41481;DHT22;27217;51.220;5.308;2022-12-13T10:19:21;-1.20;99.90
41481;DHT22;27217;51.220;5.308;2022-12-13T10:21:48;-1.10;99.90
41481;DHT22;27217;51.220;5.308;2022-12-13T10:24:23;-0.90;99.90
41481;DHT22;27217;51.220;5.308;2022-12-13T10:26:52;-0.80;99.90
41481;DHT22;27217;51.220;5.308;2022-12-13T10:29:19;-0.60;99.90
41481;DHT22;27217;51.220;5.308;2022-12-13T10:31:51;-0.30;99.90
41481;DHT22;27217;51.220;5.308;2022-12-13T10:34:28;0.10;99.90
41481;DHT22;27217;51.220;5.308;2022-12-13T10:36:55;0.60;99.90
41481;DHT22;27217;51.220;5.308;2022-12-13T10:39:41;1.10;99.90
41481;DHT22;27217;51.220;5.308;2022-12-13T10:42:13;1.30;99.90
41481;DHT22;27217;51.220;5.308;2022-12-13T10:44:39;1.20;99.90
41481;DHT22;27217;51.220;5.308;2022-12-13T10:47:15;0.80;99.90
41481;DHT22;27217;51.220;5.308;2022-12-13T10:49:53;0.70;99.90
41481;DHT22;27217;51.220;5.308;2022-12-13T10:52:27;0.30;99.90
41481;DHT22;27217;51.220;5.308;2022-12-13T10:54:55;0.20;99.90
41481;DHT22;27217;51.220;5.308;2022-12-13T10:57:22;0.60;99.90
41481;DHT22;27217;51.220;5.308;2022-12-13T10:59:49;1.20;99.90
41481;DHT22;27217;51.220;5.308;2022-12-13T11:02:28;1.60;99.90
41481;DHT22;27217;51.220;5.308;2022-12-13T11:04:55;1.90;99.90
41481;DHT22;27217;51.220;5.308;2022-12-13T11:07:31;2.10;99.90
41481;DHT22;27217;51.220;5.308;2022-12-13T11:10:43;2.00;99.90
41481;DHT22;27217;51.220;5.308;2022-12-13T11:12:44;1.50;99.90
41481;DHT22;27217;51.220;5.308;2022-12-13T11:15:20;1.60;99.90
41481;DHT22;27217;51.220;5.308;2022-12-13T11:18:02;1.70;99.90
41481;DHT22;27217;51.220;5.308;2022-12-13T11:20:35;1.80;99.90
41481;DHT22;27217;51.220;5.308;2022-12-13T11:23:21;2.10;99.90
41481;DHT22;27217;51.220;5.308;2022-12-13T11:25:56;2.40;99.90
41481;DHT22;27217;51.220;5.308;2022-12-13T11:31:16;3.40;99.90
41481;DHT22;27217;51.220;5.308;2022-12-13T11:34:09;3.30;99.90
41481;DHT22;27217;51.220;5.308;2022-12-13T11:39:21;3.80;99.90
41481;DHT22;27217;51.220;5.308;2022-12-13T11:47:34;4.80;99.90
41481;DHT22;27217;51.220;5.308;2022-12-13T11:50:05;4.90;99.90
41481;DHT22;27217;51.220;5.308;2022-12-13T11:52:45;5.30;99.90
41481;DHT22;27217;51.220;5.308;2022-12-13T12:00:51;3.80;99.90
41481;DHT22;27217;51.220;5.308;2022-12-13T12:03:44;3.60;99.90
41481;DHT22;27217;51.220;5.308;2022-12-13T12:06:37;2.80;99.90
41481;DHT22;27217;51.220;5.308;2022-12-13T12:09:09;2.40;99.90
41481;DHT22;27217;51.220;5.308;2022-12-13T12:11:58;2.20;99.90
41481;DHT22;27217;51.220;5.308;2022-12-13T12:17:02;1.80;99.90
41481;DHT22;27217;51.220;5.308;2022-12-13T12:19:48;1.70;99.90
41481;DHT22;27217;51.220;5.308;2022-12-13T13:00:44;1.90;99.90
41481;DHT22;27217;51.220;5.308;2022-12-13T13:03:20;2.10;99.90
41481;DHT22;27217;51.220;5.308;2022-12-13T13:06:03;2.10;99.90
41481;DHT22;27217;51.220;5.308;2022-12-13T13:08:32;2.20;99.90
41481;DHT22;27217;51.220;5.308;2022-12-13T13:11:04;1.80;99.90
41481;DHT22;27217;51.220;5.308;2022-12-13T13:19:53;1.50;99.90
41481;DHT22;27217;51.220;5.308;2022-12-13T13:25:21;1.80;99.90
41481;DHT22;27217;51.220;5.308;2022-12-13T13:27:49;1.70;99.90
41481;DHT22;27217;51.220;5.308;2022-12-13T13:30:20;1.70;99.90
41481;DHT22;27217;51.220;5.308;2022-12-13T13:32:48;1.70;99.90
41481;DHT22;27217;51.220;5.308;2022-12-13T13:37:59;2.00;99.90
41481;DHT22;27217;51.220;5.308;2022-12-13T13:40:36;1.90;99.90
41481;DHT22;27217;51.220;5.308;2022-12-13T14:03:27;1.60;99.90
41481;DHT22;27217;51.220;5.308;2022-12-13T14:09:10;1.60;99.90
41481;DHT22;27217;51.220;5.308;2022-12-13T14:12:10;1.50;99.90
41481;DHT22;27217;51.220;5.308;2022-12-13T14:23:29;1.60;99.90
41481;DHT22;27217;51.220;5.308;2022-12-13T14:31:22;1.40;99.90
41481;DHT22;27217;51.220;5.308;2022-12-13T14:33:51;1.40;99.90
41481;DHT22;27217;51.220;5.308;2022-12-13T14:36:25;1.20;99.90
41481;DHT22;27217;51.220;5.308;2022-12-13T14:38:59;1.40;99.90
41481;DHT22;27217;51.220;5.308;2022-12-13T14:41:25;1.20;99.90
41481;DHT22;27217;51.220;5.308;2022-12-13T14:43:51;1.20;99.90
41481;DHT22;27217;51.220;5.308;2022-12-13T14:46:17;1.10;99.90
41481;DHT22;27217;51.220;5.308;2022-12-13T14:48:53;1.00;99.90
41481;DHT22;27217;51.220;5.308;2022-12-13T14:51:31;1.10;99.90
41481;DHT22;27217;51.220;5.308;2022-12-13T14:53:59;1.10;99.90
41481;DHT22;27217;51.220;5.308;2022-12-13T14:56:25;0.90;99.90
41481;DHT22;27217;51.220;5.308;2022-12-13T14:59:01;0.80;99.90
41481;DHT22;27217;51.220;5.308;2022-12-13T15:01:33;1.00;99.90
41481;DHT22;27217;51.220;5.308;2022-12-13T15:04:22;0.90;99.90
41481;DHT22;27217;51.220;5.308;2022-12-13T15:07:17;0.70;99.90
41481;DHT22;27217;51.220;5.308;2022-12-13T15:09:42;0.60;99.90
41481;DHT22;27217;51.220;5.308;2022-12-13T15:12:14;0.70;99.90
41481;DHT22;27217;51.220;5.308;2022-12-13T15:14:56;0.60;99.90
41481;DHT22;27217;51.220;5.308;2022-12-13T15:19:55;0.30;99.90
41481;DHT22;27217;51.220;5.308;2022-12-13T15:22:21;0.50;99.90
41481;DHT22;27217;51.220;5.308;2022-12-13T15:24:47;0.90;99.90
41481;DHT22;27217;51.220;5.308;2022-12-13T15:27:18;0.90;99.90
41481;DHT22;27217;51.220;5.308;2022-12-13T15:29:45;0.90;99.90
41481;DHT22;27217;51.220;5.308;2022-12-13T15:32:14;0.90;99.90
41481;DHT22;27217;51.220;5.308;2022-12-13T15:34:41;1.00;99.90
41481;DHT22;27217;51.220;5.308;2022-12-13T15:39:39;0.70;99.90
41481;DHT22;27217;51.220;5.308;2022-12-13T15:42:15;0.70;99.90
41481;DHT22;27217;51.220;5.308;2022-12-13T15:44:47;0.50;99.90
41481;DHT22;27217;51.220;5.308;2022-12-13T15:47:16;0.60;99.90
41481;DHT22;27217;51.220;5.308;2022-12-13T15:49:52;0.50;99.90
41481;DHT22;27217;51.220;5.308;2022-12-13T15:52:37;0.40;99.90
41481;DHT22;27217;51.220;5.308;2022-12-13T15:57:49;0.10;99.90
41481;DHT22;27217;51.220;5.308;2022-12-13T16:05:35;-0.10;99.90
41481;DHT22;27217;51.220;5.308;2022-12-13T16:08:47;0.10;99.90
41481;DHT22;27217;51.220;5.308;2022-12-13T16:11:06;0.20;99.90
41481;DHT22;27217;51.220;5.308;2022-12-13T16:13:35;0.30;99.90
41481;DHT22;27217;51.220;5.308;2022-12-13T16:16:28;0.30;99.90
41481;DHT22;27217;51.220;5.308;2022-12-13T16:18:59;0.30;99.90
41481;DHT22;27217;51.220;5.308;2022-12-13T16:21:26;0.10;99.90
41481;DHT22;27217;51.220;5.308;2022-12-13T16:23:55;0.30;99.90
41481;DHT22;27217;51.220;5.308;2022-12-13T16:26:26;0.00;99.90
41481;DHT22;27217;51.220;5.308;2022-12-13T16:28:54;0.00;99.90
41481;DHT22;27217;51.220;5.308;2022-12-13T16:31:25;-0.10;99.90
41481;DHT22;27217;51.220;5.308;2022-12-13T16:33:52;-0.10;99.90
41481;DHT22;27217;51.220;5.308;2022-12-13T16:36:19;0.00;99.90
41481;DHT22;27217;51.220;5.308;2022-12-13T16:38:45;0.00;99.90
41481;DHT22;27217;51.220;5.308;2022-12-13T16:41:12;-0.20;99.90
41481;DHT22;27217;51.220;5.308;2022-12-13T16:43:57;-0.20;99.90
41481;DHT22;27217;51.220;5.308;2022-12-13T16:46:23;-0.10;99.90
41481;DHT22;27217;51.220;5.308;2022-12-13T16:48:50;-0.40;99.90
41481;DHT22;27217;51.220;5.308;2022-12-13T16:51:16;-0.40;99.90
41481;DHT22;27217;51.220;5.308;2022-12-13T16:53:42;-0.30;99.90
41481;DHT22;27217;51.220;5.308;2022-12-13T16:56:08;-0.30;99.90
41481;DHT22;27217;51.220;5.308;2022-12-13T16:58:41;-0.50;99.90
41481;DHT22;27217;51.220;5.308;2022-12-13T17:01:12;-0.30;99.90
41481;DHT22;27217;51.220;5.308;2022-12-13T17:03:38;-0.20;99.90
41481;DHT22;27217;51.220;5.308;2022-12-13T17:06:05;-0.30;99.90
41481;DHT22;27217;51.220;5.308;2022-12-13T17:08:31;-0.50;99.90
41481;DHT22;27217;51.220;5.308;2022-12-13T17:10:58;-0.40;99.90
41481;DHT22;27217;51.220;5.308;2022-12-13T17:13:25;-0.40;99.90
41481;DHT22;27217;51.220;5.308;2022-12-13T17:15:50;-0.60;99.90
41481;DHT22;27217;51.220;5.308;2022-12-13T17:18:16;-0.40;99.90
41481;DHT22;27217;51.220;5.308;2022-12-13T17:20:43;-0.20;99.90
41481;DHT22;27217;51.220;5.308;2022-12-13T17:23:09;-0.20;99.90
41481;DHT22;27217;51.220;5.308;2022-12-13T17:25:39;-0.30;99.90
41481;DHT22;27217;51.220;5.308;2022-12-13T17:28:06;-0.40;99.90
41481;DHT22;27217;51.220;5.308;2022-12-13T17:30:32;-0.50;99.90
41481;DHT22;27217;51.220;5.308;2022-12-13T17:33:02;-0.50;99.90
41481;DHT22;27217;51.220;5.308;2022-12-13T17:35:29;-0.40;99.90
41481;DHT22;27217;51.220;5.308;2022-12-13T17:37:56;-0.50;99.90
41481;DHT22;27217;51.220;5.308;2022-12-13T17:40:25;-0.30;99.90
41481;DHT22;27217;51.220;5.308;2022-12-13T17:42:51;-0.20;99.90
41481;DHT22;27217;51.220;5.308;2022-12-13T17:45:18;0.00;99.90
41481;DHT22;27217;51.220;5.308;2022-12-13T17:47:47;-0.10;99.90
41481;DHT22;27217;51.220;5.308;2022-12-13T17:50:13;0.00;99.90
41481;DHT22;27217;51.220;5.308;2022-12-13T17:52:40;-0.20;99.90
41481;DHT22;27217;51.220;5.308;2022-12-13T17:55:07;-0.40;99.90
41481;DHT22;27217;51.220;5.308;2022-12-13T17:57:34;-0.30;99.90
41481;DHT22;27217;51.220;5.308;2022-12-13T18:00:01;-0.50;99.90
41481;DHT22;27217;51.220;5.308;2022-12-13T18:02:27;-0.50;99.90
41481;DHT22;27217;51.220;5.308;2022-12-13T18:04:53;-0.50;99.90
41481;DHT22;27217;51.220;5.308;2022-12-13T18:07:19;-0.40;99.90
41481;DHT22;27217;51.220;5.308;2022-12-13T18:09:44;-0.30;99.90
41481;DHT22;27217;51.220;5.308;2022-12-13T18:12:10;-0.40;99.90